createdAt,value
2022-10-18T00:00:45.996Z,37.41
2022-10-18T00:03:36.279Z,37.32
2022-10-18T00:06:09.421Z,37.34
2022-10-18T00:08:41.129Z,37.73
2022-10-18T00:11:11.586Z,37.44
2022-10-18T00:13:41.511Z,37.42
2022-10-18T00:16:13.943Z,37.80
2022-10-18T00:18:44.414Z,37.67
2022-10-18T00:21:16.451Z,37.80
2022-10-18T00:23:48.611Z,37.87
2022-10-18T00:26:20.330Z,37.47
2022-10-18T00:28:53.246Z,37.74
2022-10-18T00:31:25.781Z,37.36
2022-10-18T00:33:56.654Z,37.17
2022-10-18T00:36:27.133Z,37.02
2022-10-18T00:38:58.457Z,37.17
2022-10-18T00:41:30.874Z,37.02
2022-10-18T00:44:02.359Z,37.12
2022-10-18T00:46:34.262Z,37.22
2022-10-18T00:49:06.230Z,37.15
2022-10-18T00:51:41.510Z,37.02
2022-10-18T00:54:13.200Z,37.23
2022-10-18T00:56:45.069Z,37.15
2022-10-18T00:59:16.918Z,37.30
2022-10-18T01:01:47.471Z,37.20
2022-10-18T01:04:18.580Z,37.06
2022-10-18T01:09:41.417Z,36.94
2022-10-18T01:12:23.771Z,37.01
2022-10-18T01:15:05.177Z,37.19
2022-10-18T01:17:42.045Z,37.32
2022-10-18T01:20:35.574Z,37.47
2022-10-18T01:23:10.028Z,37.63
2022-10-18T01:25:51.074Z,37.47
2022-10-18T01:28:40.302Z,37.54
2022-10-18T01:31:16.914Z,37.50
2022-10-18T01:33:52.217Z,37.50
2022-10-18T01:36:25.218Z,37.66
2022-10-18T01:38:59.350Z,37.71
2022-10-18T01:41:30.519Z,37.74
2022-10-18T01:44:03.581Z,37.64
2022-10-18T01:46:36.366Z,37.90
2022-10-18T01:49:06.759Z,37.59
2022-10-18T01:51:36.768Z,37.67
2022-10-18T01:54:07.038Z,37.61
2022-10-18T01:56:44.411Z,37.65
2022-10-18T01:59:26.217Z,37.65
2022-10-18T02:02:04.473Z,38.20
2022-10-18T02:04:43.935Z,37.96
2022-10-18T02:07:22.158Z,37.88
2022-10-18T02:10:02.730Z,38.33
2022-10-18T02:12:35.342Z,38.87
2022-10-18T02:15:10.270Z,39.14
2022-10-18T02:17:42.761Z,39.34
2022-10-18T02:20:15.010Z,39.51
2022-10-18T02:22:46.424Z,39.63
2022-10-18T02:25:21.832Z,39.24
2022-10-18T02:27:51.894Z,38.59
2022-10-18T02:30:24.659Z,38.16
2022-10-18T02:33:03.617Z,38.43
2022-10-18T02:35:39.299Z,39.06
2022-10-18T02:38:10.021Z,38.70
2022-10-18T02:40:40.129Z,38.64
2022-10-18T02:43:09.834Z,38.54
2022-10-18T02:50:06.933Z,38.09
2022-10-18T02:52:37.224Z,38.15
2022-10-18T02:55:08.518Z,38.15
2022-10-18T02:57:38.653Z,38.31
2022-10-18T03:00:09.346Z,38.48
2022-10-18T03:02:39.341Z,38.42
2022-10-18T03:05:10.902Z,38.62
2022-10-18T03:07:40.834Z,38.49
2022-10-18T03:10:11.278Z,38.49
2022-10-18T03:12:41.988Z,38.52
2022-10-18T03:15:12.317Z,38.52
2022-10-18T03:18:00.519Z,38.53
2022-10-18T03:20:32.360Z,38.79
2022-10-18T03:23:02.001Z,38.71
2022-10-18T03:25:31.564Z,38.11
2022-10-18T03:28:01.286Z,38.38
2022-10-18T03:30:30.793Z,37.87
2022-10-18T03:33:00.474Z,38.22
2022-10-18T03:35:31.952Z,38.63
2022-10-18T03:38:01.609Z,38.62
2022-10-18T03:43:06.155Z,38.83
2022-10-18T03:45:35.688Z,38.24
2022-10-18T03:48:05.936Z,38.21
2022-10-18T03:50:37.543Z,38.84
2022-10-18T03:53:07.688Z,38.96
2022-10-18T03:55:39.169Z,39.17
2022-10-18T03:58:08.992Z,38.98
2022-10-18T04:00:38.990Z,39.18
2022-10-18T04:03:08.658Z,38.97
2022-10-18T04:05:39.693Z,38.45
2022-10-18T04:08:09.411Z,38.81
2022-10-18T04:10:40.285Z,39.18
2022-10-18T04:13:10.549Z,39.28
2022-10-18T04:15:40.790Z,39.22
2022-10-18T04:18:10.620Z,39.53
2022-10-18T04:20:42.153Z,39.93
2022-10-18T04:23:12.148Z,39.48
2022-10-18T04:28:13.660Z,38.91
2022-10-18T04:30:43.651Z,39.17
2022-10-18T04:33:13.179Z,38.48
2022-10-18T04:35:44.449Z,37.73
2022-10-18T04:38:14.665Z,38.34
2022-10-18T04:40:44.741Z,38.19
2022-10-18T04:43:14.914Z,38.15
2022-10-18T04:45:47.402Z,38.37
2022-10-18T04:48:17.503Z,38.27
2022-10-18T04:50:51.703Z,38.40
2022-10-18T04:53:21.425Z,37.93
2022-10-18T04:55:52.093Z,38.12
2022-10-18T04:58:22.231Z,38.27
2022-10-18T05:00:52.461Z,38.13
2022-10-18T05:03:22.366Z,38.10
2022-10-18T05:06:03.530Z,38.17
2022-10-18T05:08:36.740Z,38.12
2022-10-18T05:11:12.752Z,38.20
2022-10-18T05:14:32.382Z,36.93
2022-10-18T05:17:02.980Z,37.70
2022-10-18T05:19:32.997Z,38.19
2022-10-18T05:22:05.003Z,38.55
2022-10-18T05:24:34.678Z,38.49
2022-10-18T05:27:04.814Z,38.44
2022-10-18T05:29:35.503Z,38.81
2022-10-18T05:32:45.930Z,38.63
2022-10-18T05:35:25.355Z,38.27
2022-10-18T05:38:00.046Z,38.86
2022-10-18T05:40:44.797Z,38.79
2022-10-18T05:43:14.970Z,38.75
2022-10-18T05:45:49.755Z,39.33
2022-10-18T05:48:20.343Z,39.17
2022-10-18T05:50:50.151Z,38.86
2022-10-18T05:53:37.738Z,39.16
2022-10-18T05:56:08.995Z,39.01
2022-10-18T05:58:39.197Z,38.82
2022-10-18T06:01:08.749Z,37.30
2022-10-18T06:03:39.288Z,38.15
2022-10-18T06:06:10.539Z,38.16
2022-10-18T06:08:43.319Z,37.91
2022-10-18T06:26:03.054Z,36.21
2022-10-18T06:28:36.975Z,36.29
2022-10-18T06:31:08.304Z,36.41
2022-10-18T06:36:12.180Z,36.60
2022-10-18T06:38:43.421Z,36.20
2022-10-18T06:41:15.100Z,36.06
2022-10-18T06:43:49.313Z,35.76
2022-10-18T06:46:19.231Z,35.68
2022-10-18T06:48:50.879Z,35.39
2022-10-18T06:51:21.287Z,34.81
2022-10-18T06:54:06.205Z,34.76
2022-10-18T06:56:43.732Z,34.83
2022-10-18T06:59:24.358Z,34.53
2022-10-18T07:02:17.039Z,33.69
2022-10-18T07:04:47.285Z,34.09
2022-10-18T07:07:16.595Z,32.90
2022-10-18T07:10:25.694Z,33.17
2022-10-18T07:13:13.659Z,33.55
2022-10-18T07:15:48.591Z,33.32
2022-10-18T07:19:04.050Z,33.23
2022-10-18T07:21:52.793Z,33.36
2022-10-18T07:24:25.015Z,33.27
2022-10-18T07:26:55.744Z,32.97
2022-10-18T07:29:28.410Z,32.81
2022-10-18T07:32:01.008Z,32.85
2022-10-18T07:34:31.565Z,32.65
2022-10-18T07:37:03.837Z,32.76
2022-10-18T07:39:33.929Z,32.47
2022-10-18T07:42:04.331Z,31.99
2022-10-18T07:44:36.125Z,31.84
2022-10-18T07:47:06.342Z,31.51
2022-10-18T07:49:35.891Z,30.65
2022-10-18T07:52:06.458Z,31.03
2022-10-18T07:54:36.263Z,30.56
2022-10-18T07:57:06.763Z,31.05
2022-10-18T07:59:39.577Z,30.01
2022-10-18T08:02:10.995Z,29.83
2022-10-18T08:04:40.795Z,29.83
2022-10-18T08:07:11.253Z,29.21
2022-10-18T08:09:41.722Z,28.75
2022-10-18T08:12:12.732Z,28.78
2022-10-18T08:14:45.139Z,27.88
2022-10-18T08:17:15.454Z,27.67
2022-10-18T08:19:52.969Z,27.98
2022-10-18T08:22:35.203Z,27.72
2022-10-18T08:25:06.060Z,27.53
2022-10-18T08:32:16.259Z,26.72
2022-10-18T08:35:38.691Z,26.27
2022-10-18T08:38:16.600Z,26.19
2022-10-18T08:40:49.151Z,26.55
2022-10-18T08:43:28.111Z,26.61
2022-10-18T08:45:58.950Z,26.30
2022-10-18T08:48:37.269Z,26.26
2022-10-18T08:51:21.898Z,25.91
2022-10-18T08:53:58.691Z,25.44
2022-10-18T08:56:29.279Z,25.42
2022-10-18T08:58:59.121Z,25.17
2022-10-18T09:01:38.506Z,24.87
2022-10-18T09:04:34.887Z,24.89
2022-10-18T09:11:20.863Z,24.53
2022-10-18T09:14:34.838Z,24.21
2022-10-18T09:17:24.024Z,24.06
2022-10-18T09:20:09.758Z,24.05
2022-10-18T09:22:50.834Z,23.87
2022-10-18T09:25:23.000Z,23.73
2022-10-18T09:27:58.536Z,23.04
2022-10-18T09:30:46.233Z,22.65
2022-10-18T09:33:38.602Z,20.43
2022-10-18T09:36:12.339Z,18.69
2022-10-18T09:42:36.554Z,15.31
2022-10-18T09:45:17.132Z,13.87
2022-10-18T09:47:54.046Z,12.90
2022-10-18T09:50:27.553Z,12.01
2022-10-18T09:53:06.734Z,11.93
2022-10-18T09:55:41.173Z,11.60
2022-10-18T09:58:15.536Z,11.80
2022-10-18T10:00:50.392Z,10.96
2022-10-18T10:03:20.535Z,9.99
2022-10-18T10:06:30.566Z,10.36
2022-10-18T10:12:32.839Z,9.75
2022-10-18T10:16:07.135Z,10.26
2022-10-18T10:18:55.735Z,9.92
2022-10-18T10:21:26.747Z,9.85
2022-10-18T10:24:00.431Z,9.93
2022-10-18T10:26:35.203Z,9.70
2022-10-18T10:29:13.114Z,9.83
2022-10-18T10:31:48.522Z,9.64
2022-10-18T10:34:22.069Z,10.23
2022-10-18T10:36:53.611Z,9.83
2022-10-18T10:39:25.321Z,9.87
2022-10-18T10:41:59.590Z,9.63
2022-10-18T10:44:31.969Z,10.37
2022-10-18T10:47:02.222Z,10.49
2022-10-18T10:49:45.521Z,10.13
2022-10-18T10:52:27.221Z,10.29
2022-10-18T10:55:34.069Z,9.94
2022-10-18T10:57:54.804Z,9.32
2022-10-18T11:00:45.911Z,10.01
2022-10-18T11:03:28.658Z,9.88
2022-10-18T11:06:01.194Z,10.23
2022-10-18T11:08:37.223Z,9.70
2022-10-18T11:11:20.606Z,9.61
2022-10-18T11:14:20.932Z,8.76
2022-10-18T11:16:58.271Z,9.70
2022-10-18T11:19:39.124Z,9.90
2022-10-18T11:22:15.507Z,9.97
2022-10-18T11:24:46.213Z,9.67
2022-10-18T11:27:26.718Z,9.29
2022-10-18T11:30:17.133Z,9.58
2022-10-18T11:32:55.796Z,9.87
2022-10-18T11:35:37.296Z,9.98
2022-10-18T11:38:17.903Z,9.60
2022-10-18T11:40:59.620Z,9.39
2022-10-18T11:44:01.246Z,10.04
2022-10-18T11:46:44.436Z,10.16
2022-10-18T11:49:27.316Z,10.12
2022-10-18T11:52:10.397Z,10.13
2022-10-18T11:54:55.110Z,9.91
2022-10-18T11:57:43.554Z,9.85
2022-10-18T12:00:29.317Z,10.77
2022-10-18T12:03:16.509Z,10.64
2022-10-18T12:05:48.991Z,10.38
2022-10-18T12:08:23.162Z,10.57
2022-10-18T12:11:04.987Z,10.38
2022-10-18T12:13:42.148Z,10.57
2022-10-18T12:16:12.854Z,10.51
2022-10-18T12:21:28.945Z,10.83
2022-10-18T12:24:03.014Z,10.71
2022-10-18T12:26:34.366Z,10.87
2022-10-18T12:29:14.632Z,11.62
2022-10-18T12:31:48.154Z,10.99
2022-10-18T12:34:31.023Z,11.81
2022-10-18T12:37:23.617Z,11.07
2022-10-18T12:40:15.504Z,10.82
2022-10-18T12:42:48.515Z,10.68
2022-10-18T12:45:27.758Z,11.56
2022-10-18T12:48:10.152Z,11.90
2022-10-18T12:50:44.104Z,11.34
2022-10-18T12:53:20.219Z,11.43
2022-10-18T12:55:54.144Z,11.85
2022-10-18T12:58:32.917Z,11.58
2022-10-18T13:01:13.841Z,12.40
2022-10-18T13:03:57.445Z,14.17
2022-10-18T13:07:11.425Z,14.19
2022-10-18T13:31:59.265Z,19.40
2022-10-18T13:34:35.563Z,20.68
2022-10-18T13:37:08.014Z,20.58
2022-10-18T13:39:39.972Z,20.95
2022-10-18T13:42:33.448Z,20.93
2022-10-18T13:45:46.960Z,20.34
2022-10-18T13:48:53.048Z,21.63
2022-10-18T13:51:57.311Z,21.56
2022-10-18T13:54:59.158Z,22.49
2022-10-18T13:57:47.666Z,23.49
2022-10-18T14:00:35.629Z,23.42
2022-10-18T14:03:56.166Z,23.52
2022-10-18T14:06:28.931Z,23.36
2022-10-18T14:09:09.734Z,24.06
2022-10-18T14:11:54.434Z,23.80
2022-10-18T14:14:34.388Z,24.56
2022-10-18T14:17:17.957Z,24.70
2022-10-18T14:19:52.552Z,24.93
2022-10-18T14:22:27.571Z,25.29
2022-10-18T14:24:59.349Z,25.70
2022-10-18T14:27:33.206Z,26.46
2022-10-18T14:30:12.515Z,26.55
2022-10-18T14:32:47.637Z,26.88
2022-10-18T14:35:37.120Z,27.47
2022-10-18T14:38:16.505Z,26.79
2022-10-18T14:40:46.736Z,27.55
2022-10-18T14:43:21.679Z,27.37
2022-10-18T14:45:51.322Z,27.70
2022-10-18T14:48:24.616Z,27.77
2022-10-18T14:51:00.811Z,28.17
2022-10-18T14:53:39.328Z,28.59
2022-10-18T14:56:10.278Z,29.08
2022-10-18T14:58:43.907Z,28.52
2022-10-18T15:01:18.666Z,29.09
2022-10-18T15:03:49.868Z,29.41
2022-10-18T15:06:21.439Z,29.52
2022-10-18T15:08:57.000Z,29.40
2022-10-18T15:11:28.198Z,29.45
2022-10-18T15:14:03.322Z,29.94
2022-10-18T15:16:34.542Z,30.12
2022-10-18T15:19:07.807Z,30.10
2022-10-18T15:21:37.654Z,30.33
2022-10-18T15:24:33.293Z,30.02
2022-10-18T15:27:11.090Z,31.01
2022-10-18T15:29:44.044Z,30.87
2022-10-18T15:32:21.817Z,31.32
2022-10-18T15:34:52.497Z,31.43
2022-10-18T15:37:34.670Z,31.68
2022-10-18T15:40:38.845Z,32.09
2022-10-18T15:43:45.579Z,32.18
2022-10-18T15:46:32.672Z,31.89
2022-10-18T15:49:56.861Z,31.50
2022-10-18T15:52:38.541Z,30.41
2022-10-18T15:55:48.145Z,31.67
2022-10-18T15:58:23.104Z,32.23
2022-10-18T16:00:55.621Z,32.41
2022-10-18T16:03:26.927Z,32.43
2022-10-18T16:06:01.118Z,32.74
2022-10-18T16:08:32.881Z,32.84
2022-10-18T16:11:05.284Z,33.24
2022-10-18T16:13:35.640Z,32.69
2022-10-18T16:16:04.925Z,31.10
2022-10-18T16:18:35.704Z,31.84
2022-10-18T16:21:05.851Z,32.13
2022-10-18T16:23:36.443Z,31.93
2022-10-18T16:26:09.353Z,32.64
2022-10-18T16:28:39.819Z,32.34
2022-10-18T16:31:10.174Z,32.31
2022-10-18T16:33:40.927Z,32.42
2022-10-18T16:36:16.297Z,32.60
2022-10-18T16:38:46.744Z,32.45
2022-10-18T16:41:18.857Z,32.48
2022-10-18T16:43:50.487Z,32.68
2022-10-18T16:46:23.757Z,33.01
2022-10-18T16:48:54.044Z,32.74
2022-10-18T16:51:24.320Z,32.79
2022-10-18T16:53:54.928Z,33.11
2022-10-18T16:56:28.834Z,33.25
2022-10-18T16:59:00.390Z,33.29
2022-10-18T17:01:30.900Z,33.10
2022-10-18T17:04:01.642Z,33.00
2022-10-18T17:06:32.847Z,31.96
2022-10-18T17:09:03.569Z,32.81
2022-10-18T17:11:34.910Z,33.21
2022-10-18T17:14:05.335Z,33.53
2022-10-18T17:16:37.565Z,33.27
2022-10-18T17:19:12.427Z,33.69
2022-10-18T17:21:42.119Z,33.54
2022-10-18T17:24:12.480Z,33.86
2022-10-18T17:26:43.672Z,33.58
2022-10-18T17:29:14.287Z,33.74
2022-10-18T17:31:44.436Z,33.78
2022-10-18T17:34:21.454Z,33.51
2022-10-18T17:36:52.230Z,33.55
2022-10-18T17:39:22.261Z,33.54
2022-10-18T17:41:55.832Z,34.23
2022-10-18T17:44:27.107Z,34.09
2022-10-18T17:46:56.807Z,34.40
2022-10-18T17:49:26.904Z,34.48
2022-10-18T17:51:57.763Z,35.14
2022-10-18T17:54:27.885Z,34.84
2022-10-18T17:57:01.459Z,35.22
2022-10-18T17:59:32.545Z,35.18
2022-10-18T18:02:02.836Z,35.08
2022-10-18T18:04:33.062Z,35.41
2022-10-18T18:07:04.802Z,35.98
2022-10-18T18:09:34.764Z,36.92
2022-10-18T18:12:06.493Z,36.86
2022-10-18T18:14:36.435Z,36.76
2022-10-18T18:17:06.400Z,36.53
2022-10-18T18:19:37.431Z,36.36
2022-10-18T18:22:07.490Z,36.58
2022-10-18T18:24:37.810Z,36.44
2022-10-18T18:27:09.515Z,37.03
2022-10-18T18:29:39.707Z,36.55
2022-10-18T18:32:09.766Z,36.66
2022-10-18T18:34:41.098Z,36.59
2022-10-18T18:37:11.494Z,36.87
2022-10-18T18:39:41.465Z,36.71
2022-10-18T18:42:12.878Z,36.67
2022-10-18T18:44:46.330Z,36.54
2022-10-18T18:47:16.095Z,36.69
2022-10-18T18:49:46.139Z,36.48
2022-10-18T18:52:15.785Z,36.55
2022-10-18T18:54:46.037Z,36.82
2022-10-18T18:57:18.692Z,36.98
2022-10-18T18:59:48.724Z,36.79
2022-10-18T19:02:18.421Z,36.96
2022-10-18T19:04:48.610Z,37.31
2022-10-18T19:07:18.340Z,37.23
2022-10-18T19:09:50.908Z,37.34
2022-10-18T19:12:22.026Z,37.73
2022-10-18T19:14:52.140Z,37.63
2022-10-18T19:17:22.281Z,37.73
2022-10-18T19:19:52.928Z,38.31
2022-10-18T19:22:22.846Z,38.31
2022-10-18T19:24:53.091Z,38.16
2022-10-18T19:27:24.568Z,38.44
2022-10-18T19:29:54.743Z,38.37
2022-10-18T19:32:24.722Z,38.54
2022-10-18T19:34:54.734Z,38.93
2022-10-18T19:37:24.804Z,38.89
2022-10-18T19:40:28.276Z,39.72
2022-10-18T19:43:02.762Z,39.27
2022-10-18T19:45:33.605Z,38.84
2022-10-18T19:48:03.513Z,38.83
2022-10-18T19:50:33.727Z,38.95
2022-10-18T19:53:03.776Z,38.83
2022-10-18T19:55:35.697Z,39.16
2022-10-18T19:58:07.012Z,39.17
2022-10-18T20:00:37.349Z,39.21
2022-10-18T20:03:07.086Z,39.10
2022-10-18T20:05:37.032Z,39.16
2022-10-18T20:08:07.275Z,39.10
2022-10-18T20:10:37.765Z,39.31
2022-10-18T20:13:09.598Z,39.80
2022-10-18T20:15:39.781Z,39.97
2022-10-18T20:18:09.101Z,39.25
2022-10-18T20:20:39.402Z,39.75
2022-10-18T20:23:09.308Z,39.96
2022-10-18T20:25:39.570Z,39.90
2022-10-18T20:28:10.959Z,40.13
2022-10-18T20:30:41.135Z,40.42
2022-10-18T20:33:11.047Z,41.31
2022-10-18T20:35:41.130Z,40.88
2022-10-18T20:38:10.686Z,40.98
2022-10-18T20:40:40.625Z,40.76
2022-10-18T20:43:11.728Z,41.67
2022-10-18T20:45:41.677Z,40.91
2022-10-18T20:48:11.386Z,41.79
2022-10-18T20:50:44.478Z,42.12
2022-10-18T20:53:14.285Z,41.21
2022-10-18T20:55:44.422Z,41.52
2022-10-18T20:58:15.579Z,41.44
2022-10-18T21:00:45.644Z,41.00
2022-10-18T21:03:15.295Z,41.21
2022-10-18T21:05:44.746Z,40.56
2022-10-18T21:08:14.419Z,41.16
2022-10-18T21:10:43.830Z,40.55
2022-10-18T21:13:14.935Z,40.90
2022-10-18T21:15:44.904Z,40.89
2022-10-18T21:18:14.378Z,40.14
2022-10-18T21:20:44.363Z,40.54
2022-10-18T21:23:14.001Z,41.00
2022-10-18T21:25:46.557Z,41.93
2022-10-18T21:28:18.183Z,42.42
2022-10-18T21:30:48.324Z,42.08
2022-10-18T21:33:18.436Z,42.32
2022-10-18T21:35:47.906Z,41.62
2022-10-18T21:38:17.750Z,41.52
2022-10-18T21:40:47.623Z,41.85
2022-10-18T21:43:18.781Z,42.16
2022-10-18T21:45:48.690Z,41.88
2022-10-18T21:48:18.343Z,42.09
2022-10-18T21:50:48.242Z,41.93
2022-10-18T21:53:17.946Z,42.30
2022-10-18T21:55:47.846Z,41.25
2022-10-18T21:58:18.925Z,41.98
2022-10-18T22:00:48.975Z,41.97
2022-10-18T22:03:18.780Z,42.22
2022-10-18T22:05:48.816Z,42.35
2022-10-18T22:08:18.579Z,42.69
2022-10-18T22:10:48.485Z,42.56
2022-10-18T22:13:19.550Z,43.58
2022-10-18T22:15:49.369Z,42.71
2022-10-18T22:18:19.267Z,42.84
2022-10-18T22:20:56.071Z,43.46
2022-10-18T22:23:25.634Z,43.29
2022-10-18T22:25:55.467Z,43.45
2022-10-18T22:28:26.585Z,43.54
2022-10-18T22:30:56.474Z,43.08
2022-10-18T22:33:26.205Z,42.95
2022-10-18T22:50:27.242Z,43.19
2022-10-18T22:52:57.275Z,43.05
2022-10-18T22:55:26.981Z,43.29
2022-10-18T22:58:14.638Z,43.20
2022-10-18T23:00:44.530Z,43.41
2022-10-18T23:03:15.985Z,43.51
2022-10-18T23:05:48.705Z,44.19
2022-10-18T23:08:18.182Z,43.64
2022-10-18T23:10:48.052Z,44.05
2022-10-18T23:13:17.618Z,43.81
2022-10-18T23:15:47.393Z,43.88
2022-10-18T23:18:17.942Z,43.66
2022-10-18T23:20:49.246Z,44.09
2022-10-18T23:23:18.801Z,43.79
2022-10-18T23:25:51.648Z,43.94
2022-10-18T23:28:22.124Z,44.09
2022-10-18T23:30:52.017Z,43.96
2022-10-18T23:33:21.543Z,44.01
2022-10-18T23:35:52.390Z,43.45
2022-10-18T23:38:21.949Z,44.14
2022-10-18T23:40:51.681Z,44.66
2022-10-18T23:43:21.194Z,45.07
2022-10-18T23:45:51.034Z,45.61
2022-10-18T23:48:20.714Z,46.15
2022-10-18T23:50:53.004Z,46.23
2022-10-18T23:53:23.070Z,46.28
2022-10-18T23:55:55.422Z,47.16
2022-10-18T23:58:25.555Z,47.15
